Huvudsida
METAR-TAF:

METAR-TAF

Flygplatser :

Namangan, Uzbekistan

latitud: 40-59-04N, longitud: 071-33-24E, höjd: 474 m

Aktuellt väderrapport

Denna rapport gjordes för 27 minuter sedan, klockan 14:30 UTC
Vind 2 kt varierande vindriktning
Temperatur 30°C
Fuktighet 43%
Tryck 1005 hPa
Sikt 10 km eller mer

METAR: UTFN 201430Z VRB02KT 9999 NSC 30/16 Q1005 R28/CLRD70 NOSIG

Tid: 19:57 (14:57 UTC)

Väderprognos

Denna rapport gjordes för 3 timmar och 57 minuter sedan, klockan 11:00 UTC
Prognos gäller från 20 kl. 12 UTC till 21 kl. 12 UTC
Vind 10 kt från nord/nordväst
Sikt 10 km eller mer
Få moln på en höjd av 5000 ft, Cumulonimbus.
Spridda moln på en höjd av 10000 ft
Temporärt
från 20 kl. 12 UTC till 20 kl. 24 UTC
Vind 20 kt från väst/sydväst i byarna ända upp till 30 kt
Sikt: 5000 m
Brutna moln på en höjd av 5000 ft, Cumulonimbus.
åska, lätt regn

TAF: UTFN 201100Z 2012/2112 34010KT 9999 FEW050CB SCT100 TEMPO 2012/2024 24020G30KT 5000 -TSRA -DS BKN050CB

Aktuella väderrapporter och prognoser från 4000 flygplatser (METAR- och TAF-rapporter).

De tillgängliga stationerna syns som gula och röda prickar på kartan.

För musen över prickarna för att se namnen på stationerna.

Klicka sedan för att få väderrapporter och prognoser.

För att ändra kartan: Klicka på de gröna knapparna med ett svart kors på för att zooma in; den gröna knappen med ett streck på för att zooma ut; eller på de gröna pilarna för angränsande kartor.


METAR-TAF: